sensor_id;sensor_type;location;lat;lon;timestamp;pressure;altitude;pressure_sealevel;temperature;humidity
22688;BME280;11511;51.514;7.080;2023-04-29T00:02:17;100766.34;;;10.80;100.00
22688;BME280;11511;51.514;7.080;2023-04-29T00:04:42;100770.16;;;10.72;100.00
22688;BME280;11511;51.514;7.080;2023-04-29T00:07:08;100773.66;;;10.72;100.00
22688;BME280;11511;51.514;7.080;2023-04-29T00:09:33;100778.91;;;10.72;100.00
22688;BME280;11511;51.514;7.080;2023-04-29T00:11:59;100775.44;;;10.72;100.00
22688;BME280;11511;51.514;7.080;2023-04-29T00:14:24;100770.22;;;10.70;100.00
22688;BME280;11511;51.514;7.080;2023-04-29T00:16:50;100781.66;;;10.69;100.00
22688;BME280;11511;51.514;7.080;2023-04-29T00:19:16;100782.84;;;10.61;100.00
22688;BME280;11511;51.514;7.080;2023-04-29T00:21:42;100784.56;;;10.62;100.00
22688;BME280;11511;51.514;7.080;2023-04-29T00:24:07;100785.44;;;10.62;100.00
22688;BME280;11511;51.514;7.080;2023-04-29T00:26:33;100785.75;;;10.53;100.00
22688;BME280;11511;51.514;7.080;2023-04-29T00:28:59;100790.09;;;10.54;100.00
22688;BME280;11511;51.514;7.080;2023-04-29T00:31:25;100796.38;;;10.50;100.00
22688;BME280;11511;51.514;7.080;2023-04-29T00:33:50;100791.06;;;10.51;100.00
22688;BME280;11511;51.514;7.080;2023-04-29T00:36:15;100799.38;;;10.39;100.00
22688;BME280;11511;51.514;7.080;2023-04-29T00:42:03;100805.28;;;10.46;100.00
22688;BME280;11511;51.514;7.080;2023-04-29T00:44:28;100805.44;;;10.41;100.00
22688;BME280;11511;51.514;7.080;2023-04-29T00:46:53;100808.88;;;10.43;100.00
22688;BME280;11511;51.514;7.080;2023-04-29T00:49:19;100815.31;;;10.35;100.00
22688;BME280;11511;51.514;7.080;2023-04-29T00:51:44;100812.78;;;10.32;100.00
22688;BME280;11511;51.514;7.080;2023-04-29T00:54:10;100818.28;;;10.24;100.00
22688;BME280;11511;51.514;7.080;2023-04-29T00:56:36;100820.00;;;10.25;100.00
22688;BME280;11511;51.514;7.080;2023-04-29T00:59:03;100828.91;;;10.21;100.00
22688;BME280;11511;51.514;7.080;2023-04-29T01:01:29;100834.91;;;10.26;100.00
22688;BME280;11511;51.514;7.080;2023-04-29T01:03:55;100831.91;;;10.09;100.00
22688;BME280;11511;51.514;7.080;2023-04-29T01:12:52;100847.25;;;9.95;100.00
22688;BME280;11511;51.514;7.080;2023-04-29T01:17:30;100856.69;;;10.02;100.00
22688;BME280;11511;51.514;7.080;2023-04-29T01:20:00;100855.97;;;9.97;100.00
22688;BME280;11511;51.514;7.080;2023-04-29T01:22:26;100856.09;;;9.92;100.00
22688;BME280;11511;51.514;7.080;2023-04-29T01:24:52;100857.81;;;9.93;100.00
22688;BME280;11511;51.514;7.080;2023-04-29T01:27:38;100856.25;;;9.86;100.00
22688;BME280;11511;51.514;7.080;2023-04-29T01:30:32;100851.97;;;9.83;100.00
22688;BME280;11511;51.514;7.080;2023-04-29T01:33:15;100854.44;;;9.88;100.00
22688;BME280;11511;51.514;7.080;2023-04-29T01:38:59;100864.28;;;9.83;100.00
22688;BME280;11511;51.514;7.080;2023-04-29T01:41:37;100873.28;;;9.74;100.00
22688;BME280;11511;51.514;7.080;2023-04-29T01:44:07;100874.09;;;9.76;100.00
22688;BME280;11511;51.514;7.080;2023-04-29T01:46:36;100879.72;;;9.64;100.00
22688;BME280;11511;51.514;7.080;2023-04-29T01:49:02;100880.69;;;9.60;100.00
22688;BME280;11511;51.514;7.080;2023-04-29T01:51:27;100886.91;;;9.58;100.00
22688;BME280;11511;51.514;7.080;2023-04-29T01:53:53;100885.19;;;9.57;100.00
22688;BME280;11511;51.514;7.080;2023-04-29T01:56:19;100894.69;;;9.61;100.00
22688;BME280;11511;51.514;7.080;2023-04-29T01:58:44;100899.34;;;9.53;100.00
22688;BME280;11511;51.514;7.080;2023-04-29T02:01:10;100890.66;;;9.49;100.00
22688;BME280;11511;51.514;7.080;2023-04-29T02:03:36;100909.34;;;9.38;100.00
22688;BME280;11511;51.514;7.080;2023-04-29T02:06:01;100907.50;;;9.42;100.00
22688;BME280;11511;51.514;7.080;2023-04-29T02:08:26;100901.66;;;9.31;100.00
22688;BME280;11511;51.514;7.080;2023-04-29T02:10:56;100904.44;;;9.26;100.00
22688;BME280;11511;51.514;7.080;2023-04-29T02:13:22;100912.91;;;9.36;100.00
22688;BME280;11511;51.514;7.080;2023-04-29T02:15:47;100908.91;;;9.23;100.00
22688;BME280;11511;51.514;7.080;2023-04-29T02:18:13;100915.81;;;9.27;100.00
22688;BME280;11511;51.514;7.080;2023-04-29T02:20:38;100916.50;;;9.33;100.00
22688;BME280;11511;51.514;7.080;2023-04-29T02:23:04;100912.19;;;9.31;100.00
22688;BME280;11511;51.514;7.080;2023-04-29T02:25:29;100917.44;;;9.31;100.00
22688;BME280;11511;51.514;7.080;2023-04-29T02:27:54;100919.38;;;9.24;100.00
22688;BME280;11511;51.514;7.080;2023-04-29T02:30:20;100915.84;;;9.25;100.00
22688;BME280;11511;51.514;7.080;2023-04-29T02:32:45;100915.97;;;9.21;100.00
22688;BME280;11511;51.514;7.080;2023-04-29T02:35:10;100922.91;;;9.23;100.00
22688;BME280;11511;51.514;7.080;2023-04-29T02:37:37;100923.19;;;9.12;100.00
22688;BME280;11511;51.514;7.080;2023-04-29T02:40:02;100926.56;;;9.18;100.00
22688;BME280;11511;51.514;7.080;2023-04-29T02:42:28;100930.13;;;9.15;100.00
22688;BME280;11511;51.514;7.080;2023-04-29T02:44:53;100935.28;;;9.20;100.00
22688;BME280;11511;51.514;7.080;2023-04-29T02:47:19;100938.09;;;9.12;100.00
22688;BME280;11511;51.514;7.080;2023-04-29T02:49:45;100940.78;;;9.09;100.00
22688;BME280;11511;51.514;7.080;2023-04-29T02:52:11;100934.84;;;9.02;100.00
22688;BME280;11511;51.514;7.080;2023-04-29T02:54:37;100946.16;;;9.04;100.00
22688;BME280;11511;51.514;7.080;2023-04-29T02:57:02;100944.34;;;9.06;100.00
22688;BME280;11511;51.514;7.080;2023-04-29T02:59:27;100952.41;;;9.00;100.00
22688;BME280;11511;51.514;7.080;2023-04-29T03:01:53;100955.69;;;9.08;100.00
22688;BME280;11511;51.514;7.080;2023-04-29T03:04:18;100956.75;;;9.01;100.00
22688;BME280;11511;51.514;7.080;2023-04-29T03:06:44;100958.63;;;8.96;100.00
22688;BME280;11511;51.514;7.080;2023-04-29T03:09:10;100964.50;;;9.06;100.00
22688;BME280;11511;51.514;7.080;2023-04-29T03:11:36;100968.25;;;8.97;100.00
22688;BME280;11511;51.514;7.080;2023-04-29T03:14:02;100969.13;;;8.96;100.00
22688;BME280;11511;51.514;7.080;2023-04-29T03:16:28;100961.34;;;8.93;100.00
22688;BME280;11511;51.514;7.080;2023-04-29T03:18:53;100960.25;;;9.02;100.00
22688;BME280;11511;51.514;7.080;2023-04-29T03:21:18;100973.50;;;8.97;100.00
22688;BME280;11511;51.514;7.080;2023-04-29T03:23:43;100969.38;;;8.86;100.00
22688;BME280;11511;51.514;7.080;2023-04-29T03:26:09;100971.78;;;8.96;100.00
22688;BME280;11511;51.514;7.080;2023-04-29T03:28:34;100979.63;;;8.98;100.00
22688;BME280;11511;51.514;7.080;2023-04-29T03:30:59;100980.47;;;8.98;100.00
22688;BME280;11511;51.514;7.080;2023-04-29T03:33:25;100979.97;;;8.82;100.00
22688;BME280;11511;51.514;7.080;2023-04-29T03:35:51;100979.06;;;8.83;100.00
22688;BME280;11511;51.514;7.080;2023-04-29T03:38:16;100978.78;;;8.96;100.00
22688;BME280;11511;51.514;7.080;2023-04-29T03:40:41;100985.16;;;8.86;100.00
22688;BME280;11511;51.514;7.080;2023-04-29T03:43:07;100983.47;;;8.81;100.00
22688;BME280;11511;51.514;7.080;2023-04-29T03:45:33;100984.28;;;8.85;100.00
22688;BME280;11511;51.514;7.080;2023-04-29T03:47:59;100987.63;;;8.92;100.00
22688;BME280;11511;51.514;7.080;2023-04-29T03:50:24;100989.38;;;8.93;100.00
22688;BME280;11511;51.514;7.080;2023-04-29T03:52:50;100992.88;;;8.92;100.00
22688;BME280;11511;51.514;7.080;2023-04-29T03:55:15;100994.06;;;8.78;100.00
22688;BME280;11511;51.514;7.080;2023-04-29T03:57:41;100994.84;;;8.82;100.00
22688;BME280;11511;51.514;7.080;2023-04-29T04:00:07;100993.78;;;8.91;100.00
22688;BME280;11511;51.514;7.080;2023-04-29T04:02:33;100995.56;;;8.90;100.00
22688;BME280;11511;51.514;7.080;2023-04-29T04:04:59;100994.91;;;8.79;100.00
22688;BME280;11511;51.514;7.080;2023-04-29T04:07:24;100994.72;;;8.88;100.00
22688;BME280;11511;51.514;7.080;2023-04-29T04:09:51;100994.78;;;8.85;100.00
22688;BME280;11511;51.514;7.080;2023-04-29T04:12:16;101007.13;;;8.81;100.00
22688;BME280;11511;51.514;7.080;2023-04-29T04:14:42;101008.28;;;8.70;100.00
22688;BME280;11511;51.514;7.080;2023-04-29T04:17:08;101020.28;;;8.80;100.00
22688;BME280;11511;51.514;7.080;2023-04-29T04:19:33;101027.25;;;8.82;100.00
22688;BME280;11511;51.514;7.080;2023-04-29T04:21:58;101026.31;;;8.85;100.00
22688;BME280;11511;51.514;7.080;2023-04-29T04:24:24;101017.72;;;8.77;100.00
22688;BME280;11511;51.514;7.080;2023-04-29T04:26:49;101029.31;;;8.68;100.00
22688;BME280;11511;51.514;7.080;2023-04-29T04:29:14;101026.63;;;8.71;100.00
22688;BME280;11511;51.514;7.080;2023-04-29T04:31:40;101037.88;;;8.76;100.00
22688;BME280;11511;51.514;7.080;2023-04-29T04:34:05;101031.88;;;8.71;100.00
22688;BME280;11511;51.514;7.080;2023-04-29T04:36:31;101035.44;;;8.69;100.00
22688;BME280;11511;51.514;7.080;2023-04-29T04:38:57;101050.47;;;8.62;100.00
22688;BME280;11511;51.514;7.080;2023-04-29T04:41:22;101046.81;;;8.69;100.00
22688;BME280;11511;51.514;7.080;2023-04-29T04:43:47;101049.28;;;8.75;100.00
22688;BME280;11511;51.514;7.080;2023-04-29T04:46:14;101051.09;;;8.73;100.00
22688;BME280;11511;51.514;7.080;2023-04-29T04:48:40;101052.75;;;8.77;100.00
22688;BME280;11511;51.514;7.080;2023-04-29T04:51:09;101060.63;;;8.77;100.00
22688;BME280;11511;51.514;7.080;2023-04-29T04:53:35;101064.03;;;8.81;100.00
22688;BME280;11511;51.514;7.080;2023-04-29T04:56:01;101051.09;;;8.73;100.00
22688;BME280;11511;51.514;7.080;2023-04-29T04:58:26;101064.00;;;8.82;100.00
22688;BME280;11511;51.514;7.080;2023-04-29T05:00:52;101063.28;;;8.76;100.00
22688;BME280;11511;51.514;7.080;2023-04-29T05:03:17;101061.50;;;8.76;100.00
22688;BME280;11511;51.514;7.080;2023-04-29T05:05:42;101069.28;;;8.82;100.00
22688;BME280;11511;51.514;7.080;2023-04-29T05:08:08;101065.84;;;8.79;100.00
22688;BME280;11511;51.514;7.080;2023-04-29T05:10:36;101075.25;;;8.89;100.00
22688;BME280;11511;51.514;7.080;2023-04-29T05:13:02;101071.84;;;8.86;100.00
22688;BME280;11511;51.514;7.080;2023-04-29T05:15:27;101070.06;;;8.86;100.00
22688;BME280;11511;51.514;7.080;2023-04-29T05:17:53;101079.66;;;8.89;100.00
22688;BME280;11511;51.514;7.080;2023-04-29T05:20:18;101079.66;;;8.89;100.00
22688;BME280;11511;51.514;7.080;2023-04-29T05:22:45;101080.56;;;8.86;100.00
22688;BME280;11511;51.514;7.080;2023-04-29T05:25:11;101080.47;;;8.91;100.00
22688;BME280;11511;51.514;7.080;2023-04-29T05:27:36;101083.81;;;8.99;100.00
22688;BME280;11511;51.514;7.080;2023-04-29T05:30:01;101088.25;;;8.95;100.00
22688;BME280;11511;51.514;7.080;2023-04-29T05:32:27;101090.03;;;8.95;100.00
22688;BME280;11511;51.514;7.080;2023-04-29T05:34:52;101085.41;;;9.04;100.00
22688;BME280;11511;51.514;7.080;2023-04-29T05:37:17;101096.88;;;9.02;100.00
22688;BME280;11511;51.514;7.080;2023-04-29T05:39:43;101092.63;;;8.96;100.00
22688;BME280;11511;51.514;7.080;2023-04-29T05:42:08;101088.16;;;9.00;100.00
22688;BME280;11511;51.514;7.080;2023-04-29T05:44:33;101100.47;;;8.98;100.00
22688;BME280;11511;51.514;7.080;2023-04-29T05:46:59;101091.75;;;8.96;100.00
22688;BME280;11511;51.514;7.080;2023-04-29T05:49:25;101098.06;;;8.87;100.00
22688;BME280;11511;51.514;7.080;2023-04-29T05:51:50;101107.63;;;8.91;100.00
22688;BME280;11511;51.514;7.080;2023-04-29T05:54:15;101101.38;;;8.97;100.00
22688;BME280;11511;51.514;7.080;2023-04-29T05:56:41;101115.38;;;8.97;100.00
22688;BME280;11511;51.514;7.080;2023-04-29T05:59:06;101115.47;;;8.93;100.00
22688;BME280;11511;51.514;7.080;2023-04-29T06:01:32;101117.06;;;9.00;100.00
22688;BME280;11511;51.514;7.080;2023-04-29T06:03:58;101121.25;;;9.07;100.00
22688;BME280;11511;51.514;7.080;2023-04-29T06:06:23;101117.63;;;9.12;100.00
22688;BME280;11511;51.514;7.080;2023-04-29T06:08:48;101118.47;;;9.14;100.00
22688;BME280;11511;51.514;7.080;2023-04-29T06:11:14;101124.78;;;9.06;100.00
22688;BME280;11511;51.514;7.080;2023-04-29T06:13:39;101125.66;;;9.06;100.00
22688;BME280;11511;51.514;7.080;2023-04-29T06:19:13;101128.13;;;9.14;100.00
22688;BME280;11511;51.514;7.080;2023-04-29T06:21:38;101133.22;;;9.22;100.00
22688;BME280;11511;51.514;7.080;2023-04-29T06:24:04;101132.28;;;9.24;100.00
22688;BME280;11511;51.514;7.080;2023-04-29T06:26:29;101130.59;;;9.22;100.00
22688;BME280;11511;51.514;7.080;2023-04-29T06:28:54;101138.38;;;9.26;100.00
22688;BME280;11511;51.514;7.080;2023-04-29T06:31:20;101135.75;;;9.26;100.00
22688;BME280;11511;51.514;7.080;2023-04-29T06:33:45;101138.44;;;9.23;100.00
22688;BME280;11511;51.514;7.080;2023-04-29T06:36:11;101139.38;;;9.21;100.00
22688;BME280;11511;51.514;7.080;2023-04-29T06:38:36;101149.06;;;9.19;100.00
22688;BME280;11511;51.514;7.080;2023-04-29T06:41:01;101152.41;;;9.25;100.00
22688;BME280;11511;51.514;7.080;2023-04-29T06:43:27;101152.38;;;9.27;100.00
22688;BME280;11511;51.514;7.080;2023-04-29T06:45:52;101158.78;;;9.13;100.00
22688;BME280;11511;51.514;7.080;2023-04-29T06:48:18;101165.81;;;9.13;100.00
22688;BME280;11511;51.514;7.080;2023-04-29T06:50:52;101165.78;;;9.14;100.00
22688;BME280;11511;51.514;7.080;2023-04-29T06:53:18;101170.22;;;9.11;100.00
22688;BME280;11511;51.514;7.080;2023-04-29T06:55:43;101171.03;;;9.14;100.00
22688;BME280;11511;51.514;7.080;2023-04-29T06:58:14;101178.97;;;9.11;100.00
22688;BME280;11511;51.514;7.080;2023-04-29T07:00:39;101183.31;;;9.14;100.00
22688;BME280;11511;51.514;7.080;2023-04-29T07:03:05;101180.59;;;9.19;100.00
22688;BME280;11511;51.514;7.080;2023-04-29T07:05:30;101180.56;;;9.20;100.00
22688;BME280;11511;51.514;7.080;2023-04-29T07:07:55;101183.06;;;9.26;100.00
22688;BME280;11511;51.514;7.080;2023-04-29T07:10:27;101197.13;;;9.24;100.00
22688;BME280;11511;51.514;7.080;2023-04-29T07:12:53;101198.13;;;9.18;100.00
22688;BME280;11511;51.514;7.080;2023-04-29T07:15:19;101194.69;;;9.14;100.00
22688;BME280;11511;51.514;7.080;2023-04-29T07:17:44;101187.78;;;9.09;100.00
22688;BME280;11511;51.514;7.080;2023-04-29T07:23:31;101209.69;;;9.09;100.00
22688;BME280;11511;51.514;7.080;2023-04-29T07:25:57;101214.81;;;9.15;100.00
22688;BME280;11511;51.514;7.080;2023-04-29T07:28:22;101210.72;;;9.02;100.00
22688;BME280;11511;51.514;7.080;2023-04-29T07:30:47;101227.16;;;9.12;100.00
22688;BME280;11511;51.514;7.080;2023-04-29T07:33:19;101227.19;;;9.10;100.00
22688;BME280;11511;51.514;7.080;2023-04-29T07:35:45;101235.09;;;9.09;100.00
22688;BME280;11511;51.514;7.080;2023-04-29T07:38:11;101248.16;;;9.13;100.00
22688;BME280;11511;51.514;7.080;2023-04-29T07:40:37;101241.31;;;9.05;100.00
22688;BME280;11511;51.514;7.080;2023-04-29T07:43:02;101249.97;;;9.10;100.00
22688;BME280;11511;51.514;7.080;2023-04-29T07:45:29;101251.63;;;9.15;100.00
22688;BME280;11511;51.514;7.080;2023-04-29T07:47:55;101255.25;;;9.08;100.00
22688;BME280;11511;51.514;7.080;2023-04-29T07:57:05;101263.00;;;9.16;100.00
22688;BME280;11511;51.514;7.080;2023-04-29T08:03:22;101273.50;;;9.16;100.00
22688;BME280;11511;51.514;7.080;2023-04-29T08:05:48;101267.44;;;9.12;100.00
22688;BME280;11511;51.514;7.080;2023-04-29T08:08:15;101272.63;;;9.15;100.00
22688;BME280;11511;51.514;7.080;2023-04-29T08:10:40;101281.38;;;9.16;100.00
22688;BME280;11511;51.514;7.080;2023-04-29T08:13:08;101276.88;;;9.23;100.00
22688;BME280;11511;51.514;7.080;2023-04-29T08:15:33;101278.88;;;9.10;100.00
22688;BME280;11511;51.514;7.080;2023-04-29T08:17:58;101280.28;;;9.28;100.00
22688;BME280;11511;51.514;7.080;2023-04-29T08:20:24;101282.97;;;9.25;100.00
22688;BME280;11511;51.514;7.080;2023-04-29T08:22:49;101286.53;;;9.22;100.00
22688;BME280;11511;51.514;7.080;2023-04-29T08:25:15;101289.81;;;9.32;100.00
22688;BME280;11511;51.514;7.080;2023-04-29T08:27:41;101291.75;;;9.24;100.00
22688;BME280;11511;51.514;7.080;2023-04-29T08:30:09;101289.81;;;9.32;100.00
22688;BME280;11511;51.514;7.080;2023-04-29T08:32:34;101289.84;;;9.30;100.00
22688;BME280;11511;51.514;7.080;2023-04-29T08:35:00;101288.84;;;9.36;100.00
22688;BME280;11511;51.514;7.080;2023-04-29T08:37:25;101300.16;;;9.41;100.00
22688;BME280;11511;51.514;7.080;2023-04-29T08:39:51;101300.19;;;9.39;100.00
22688;BME280;11511;51.514;7.080;2023-04-29T08:42:20;101303.75;;;9.35;100.00
22688;BME280;11511;51.514;7.080;2023-04-29T08:44:52;101313.22;;;9.45;100.00
22688;BME280;11511;51.514;7.080;2023-04-29T08:47:18;101306.75;;;9.60;100.00
22688;BME280;11511;51.514;7.080;2023-04-29T08:49:44;101306.72;;;9.62;100.00
22688;BME280;11511;51.514;7.080;2023-04-29T08:52:09;101306.66;;;9.65;100.00
22688;BME280;11511;51.514;7.080;2023-04-29T08:54:36;101311.53;;;9.83;100.00
22688;BME280;11511;51.514;7.080;2023-04-29T08:57:03;101307.75;;;9.95;100.00
22688;BME280;11511;51.514;7.080;2023-04-29T08:59:30;101307.94;;;9.85;100.00
22688;BME280;11511;51.514;7.080;2023-04-29T09:01:58;101303.81;;;9.75;100.00
22688;BME280;11511;51.514;7.080;2023-04-29T09:04:40;101313.81;;;9.98;100.00
22688;BME280;11511;51.514;7.080;2023-04-29T09:07:12;101312.53;;;9.77;100.00
22688;BME280;11511;51.514;7.080;2023-04-29T09:09:40;101311.28;;;9.94;100.00
22688;BME280;11511;51.514;7.080;2023-04-29T09:12:07;101309.06;;;10.12;100.00
22688;BME280;11511;51.514;7.080;2023-04-29T09:14:37;101316.03;;;10.15;100.00
22688;BME280;11511;51.514;7.080;2023-04-29T09:17:05;101317.03;;;10.11;100.00
22688;BME280;11511;51.514;7.080;2023-04-29T09:19:35;101315.09;;;10.19;100.00
22688;BME280;11511;51.514;7.080;2023-04-29T09:22:06;101325.31;;;10.33;100.00
22688;BME280;11511;51.514;7.080;2023-04-29T09:24:34;101321.38;;;10.49;100.00
22688;BME280;11511;51.514;7.080;2023-04-29T09:27:01;101330.22;;;10.09;100.00
22688;BME280;11511;51.514;7.080;2023-04-29T09:29:28;101325.59;;;10.21;100.00
22688;BME280;11511;51.514;7.080;2023-04-29T09:31:57;101328.56;;;10.42;100.00
22688;BME280;11511;51.514;7.080;2023-04-29T09:34:34;101337.22;;;10.47;100.00
22688;BME280;11511;51.514;7.080;2023-04-29T09:37:02;101343.16;;;10.57;100.00
22688;BME280;11511;51.514;7.080;2023-04-29T09:39:42;101346.91;;;10.47;100.00
22688;BME280;11511;51.514;7.080;2023-04-29T09:42:07;101342.81;;;10.69;100.00
22688;BME280;11511;51.514;7.080;2023-04-29T09:44:34;101341.91;;;10.70;100.00
22688;BME280;11511;51.514;7.080;2023-04-29T09:47:08;101337.25;;;11.14;100.00
22688;BME280;11511;51.514;7.080;2023-04-29T09:49:36;101341.41;;;11.53;100.00
22688;BME280;11511;51.514;7.080;2023-04-29T09:52:06;101336.25;;;11.80;100.00
22688;BME280;11511;51.514;7.080;2023-04-29T09:54:34;101334.91;;;12.24;100.00
22688;BME280;11511;51.514;7.080;2023-04-29T09:57:06;101338.63;;;12.45;100.00
22688;BME280;11511;51.514;7.080;2023-04-29T09:59:34;101330.44;;;12.52;100.00
22688;BME280;11511;51.514;7.080;2023-04-29T10:02:05;101335.34;;;12.37;100.00
22688;BME280;11511;51.514;7.080;2023-04-29T10:04:34;101331.66;;;12.42;100.00
22688;BME280;11511;51.514;7.080;2023-04-29T10:07:07;101333.63;;;12.62;100.00
22688;BME280;11511;51.514;7.080;2023-04-29T10:09:43;101339.19;;;12.81;100.00
22688;BME280;11511;51.514;7.080;2023-04-29T10:12:17;101342.41;;;13.14;100.00
22688;BME280;11511;51.514;7.080;2023-04-29T10:15:02;101338.41;;;12.77;100.00
22688;BME280;11511;51.514;7.080;2023-04-29T10:20:08;101343.25;;;13.64;100.00
22688;BME280;11511;51.514;7.080;2023-04-29T10:22:46;101329.84;;;13.92;100.00
22688;BME280;11511;51.514;7.080;2023-04-29T10:25:18;101342.84;;;13.51;100.00
22688;BME280;11511;51.514;7.080;2023-04-29T10:27:46;101340.72;;;13.38;100.00
22688;BME280;11511;51.514;7.080;2023-04-29T10:30:15;101344.50;;;14.66;100.00
22688;BME280;11511;51.514;7.080;2023-04-29T10:32:47;101337.97;;;14.95;100.00
22688;BME280;11511;51.514;7.080;2023-04-29T10:35:16;101339.94;;;14.04;100.00
22688;BME280;11511;51.514;7.080;2023-04-29T10:37:48;101338.91;;;14.52;100.00
22688;BME280;11511;51.514;7.080;2023-04-29T10:40:39;101339.38;;;15.04;100.00
22688;BME280;11511;51.514;7.080;2023-04-29T10:43:02;101337.91;;;15.17;100.00
22688;BME280;11511;51.514;7.080;2023-04-29T10:45:31;101332.25;;;14.64;100.00
22688;BME280;11511;51.514;7.080;2023-04-29T10:53:18;101354.50;;;15.61;100.00
22688;BME280;11511;51.514;7.080;2023-04-29T10:55:46;101355.44;;;15.01;100.00
22688;BME280;11511;51.514;7.080;2023-04-29T10:58:33;101352.16;;;15.14;100.00
22688;BME280;11511;51.514;7.080;2023-04-29T11:01:00;101357.47;;;15.74;100.00
22688;BME280;11511;51.514;7.080;2023-04-29T11:06:53;101353.06;;;16.29;100.00
